sensor_id;sensor_type;location;lat;lon;timestamp;P1;durP1;ratioP1;P2;durP2;ratioP2
16890;SDS011;8562;52.246;20.966;2023-05-10T00:01:25;2.73;;;2.30;;
16890;SDS011;8562;52.246;20.966;2023-05-10T00:03:51;2.70;;;2.43;;
16890;SDS011;8562;52.246;20.966;2023-05-10T00:06:16;5.03;;;2.97;;
16890;SDS011;8562;52.246;20.966;2023-05-10T00:08:41;3.37;;;2.40;;
16890;SDS011;8562;52.246;20.966;2023-05-10T00:11:07;10.40;;;2.97;;
16890;SDS011;8562;52.246;20.966;2023-05-10T00:13:32;4.53;;;2.40;;
16890;SDS011;8562;52.246;20.966;2023-05-10T00:15:57;4.17;;;2.50;;
16890;SDS011;8562;52.246;20.966;2023-05-10T00:18:23;2.97;;;2.00;;
16890;SDS011;8562;52.246;20.966;2023-05-10T00:20:48;4.57;;;2.20;;
16890;SDS011;8562;52.246;20.966;2023-05-10T00:23:14;3.20;;;1.90;;
16890;SDS011;8562;52.246;20.966;2023-05-10T00:25:39;4.43;;;2.27;;
16890;SDS011;8562;52.246;20.966;2023-05-10T00:28:04;2.87;;;2.63;;
16890;SDS011;8562;52.246;20.966;2023-05-10T00:30:29;2.67;;;2.37;;
16890;SDS011;8562;52.246;20.966;2023-05-10T00:32:55;3.23;;;2.50;;
16890;SDS011;8562;52.246;20.966;2023-05-10T00:35:20;3.00;;;1.83;;
16890;SDS011;8562;52.246;20.966;2023-05-10T00:37:46;6.03;;;2.10;;
16890;SDS011;8562;52.246;20.966;2023-05-10T00:40:12;2.83;;;2.07;;
16890;SDS011;8562;52.246;20.966;2023-05-10T00:42:39;3.30;;;2.60;;
16890;SDS011;8562;52.246;20.966;2023-05-10T00:45:06;4.93;;;2.23;;
16890;SDS011;8562;52.246;20.966;2023-05-10T00:47:32;5.93;;;2.43;;
16890;SDS011;8562;52.246;20.966;2023-05-10T00:49:58;2.43;;;2.23;;
16890;SDS011;8562;52.246;20.966;2023-05-10T00:52:24;3.90;;;2.30;;
16890;SDS011;8562;52.246;20.966;2023-05-10T00:54:51;2.87;;;2.00;;
16890;SDS011;8562;52.246;20.966;2023-05-10T00:57:17;3.60;;;2.57;;
16890;SDS011;8562;52.246;20.966;2023-05-10T00:59:42;2.10;;;1.60;;
16890;SDS011;8562;52.246;20.966;2023-05-10T01:02:07;3.47;;;2.50;;
16890;SDS011;8562;52.246;20.966;2023-05-10T01:04:33;5.20;;;2.83;;
16890;SDS011;8562;52.246;20.966;2023-05-10T01:06:59;3.20;;;2.50;;
16890;SDS011;8562;52.246;20.966;2023-05-10T01:09:24;2.43;;;2.10;;
16890;SDS011;8562;52.246;20.966;2023-05-10T01:11:51;2.73;;;2.03;;
16890;SDS011;8562;52.246;20.966;2023-05-10T01:14:17;2.73;;;2.20;;
16890;SDS011;8562;52.246;20.966;2023-05-10T01:16:43;4.40;;;2.63;;
16890;SDS011;8562;52.246;20.966;2023-05-10T01:19:19;3.07;;;2.30;;
16890;SDS011;8562;52.246;20.966;2023-05-10T01:27:29;4.20;;;2.17;;
16890;SDS011;8562;52.246;20.966;2023-05-10T01:37:25;4.17;;;2.20;;
16890;SDS011;8562;52.246;20.966;2023-05-10T01:40:03;3.63;;;2.53;;
16890;SDS011;8562;52.246;20.966;2023-05-10T01:42:36;4.83;;;2.00;;
16890;SDS011;8562;52.246;20.966;2023-05-10T01:47:42;3.73;;;1.97;;
16890;SDS011;8562;52.246;20.966;2023-05-10T01:50:18;4.37;;;2.40;;
16890;SDS011;8562;52.246;20.966;2023-05-10T01:52:46;3.50;;;2.43;;
16890;SDS011;8562;52.246;20.966;2023-05-10T01:55:14;3.33;;;2.27;;
16890;SDS011;8562;52.246;20.966;2023-05-10T01:57:40;2.10;;;1.90;;
16890;SDS011;8562;52.246;20.966;2023-05-10T02:00:07;3.73;;;2.13;;
16890;SDS011;8562;52.246;20.966;2023-05-10T02:02:44;2.13;;;1.73;;
16890;SDS011;8562;52.246;20.966;2023-05-10T02:05:11;3.27;;;2.13;;
16890;SDS011;8562;52.246;20.966;2023-05-10T02:07:37;3.20;;;2.17;;
16890;SDS011;8562;52.246;20.966;2023-05-10T02:10:04;3.03;;;2.00;;
16890;SDS011;8562;52.246;20.966;2023-05-10T02:12:31;2.23;;;1.93;;
16890;SDS011;8562;52.246;20.966;2023-05-10T02:14:56;5.23;;;2.57;;
16890;SDS011;8562;52.246;20.966;2023-05-10T02:17:22;4.10;;;2.20;;
16890;SDS011;8562;52.246;20.966;2023-05-10T02:19:48;2.60;;;2.03;;
16890;SDS011;8562;52.246;20.966;2023-05-10T02:22:14;2.27;;;2.07;;
16890;SDS011;8562;52.246;20.966;2023-05-10T02:24:40;2.93;;;2.10;;
16890;SDS011;8562;52.246;20.966;2023-05-10T02:27:06;6.13;;;2.43;;
16890;SDS011;8562;52.246;20.966;2023-05-10T02:29:33;3.23;;;2.07;;
16890;SDS011;8562;52.246;20.966;2023-05-10T02:31:59;3.57;;;2.10;;
16890;SDS011;8562;52.246;20.966;2023-05-10T02:34:25;3.63;;;2.33;;
16890;SDS011;8562;52.246;20.966;2023-05-10T02:36:51;2.83;;;2.30;;
16890;SDS011;8562;52.246;20.966;2023-05-10T02:39:17;2.80;;;1.70;;
16890;SDS011;8562;52.246;20.966;2023-05-10T02:41:44;4.43;;;2.40;;
16890;SDS011;8562;52.246;20.966;2023-05-10T02:44:11;6.57;;;2.53;;
16890;SDS011;8562;52.246;20.966;2023-05-10T02:46:37;6.50;;;2.67;;
16890;SDS011;8562;52.246;20.966;2023-05-10T02:49:02;3.00;;;2.43;;
16890;SDS011;8562;52.246;20.966;2023-05-10T02:51:28;4.27;;;2.10;;
16890;SDS011;8562;52.246;20.966;2023-05-10T02:53:56;3.77;;;2.40;;
16890;SDS011;8562;52.246;20.966;2023-05-10T02:56:26;3.40;;;2.17;;
16890;SDS011;8562;52.246;20.966;2023-05-10T02:58:53;2.90;;;2.20;;
16890;SDS011;8562;52.246;20.966;2023-05-10T03:01:19;3.60;;;2.40;;
16890;SDS011;8562;52.246;20.966;2023-05-10T03:03:44;3.03;;;2.33;;
16890;SDS011;8562;52.246;20.966;2023-05-10T03:06:09;4.20;;;2.80;;
16890;SDS011;8562;52.246;20.966;2023-05-10T03:08:35;3.30;;;2.33;;
16890;SDS011;8562;52.246;20.966;2023-05-10T03:13:34;2.80;;;2.17;;
16890;SDS011;8562;52.246;20.966;2023-05-10T03:16:12;3.60;;;2.70;;
16890;SDS011;8562;52.246;20.966;2023-05-10T03:21:25;3.57;;;2.10;;
16890;SDS011;8562;52.246;20.966;2023-05-10T03:23:59;3.37;;;2.87;;
16890;SDS011;8562;52.246;20.966;2023-05-10T03:26:26;3.17;;;2.17;;
16890;SDS011;8562;52.246;20.966;2023-05-10T03:28:58;3.63;;;2.27;;
16890;SDS011;8562;52.246;20.966;2023-05-10T03:31:24;2.37;;;1.90;;
16890;SDS011;8562;52.246;20.966;2023-05-10T03:33:50;7.57;;;2.60;;
16890;SDS011;8562;52.246;20.966;2023-05-10T03:36:21;3.30;;;1.90;;
16890;SDS011;8562;52.246;20.966;2023-05-10T03:38:47;2.33;;;2.13;;
16890;SDS011;8562;52.246;20.966;2023-05-10T03:41:12;3.23;;;1.97;;
16890;SDS011;8562;52.246;20.966;2023-05-10T03:43:38;5.37;;;2.73;;
16890;SDS011;8562;52.246;20.966;2023-05-10T03:46:03;2.53;;;1.93;;
16890;SDS011;8562;52.246;20.966;2023-05-10T03:48:29;5.67;;;2.23;;
16890;SDS011;8562;52.246;20.966;2023-05-10T03:50:55;3.27;;;2.10;;
16890;SDS011;8562;52.246;20.966;2023-05-10T03:53:20;6.77;;;2.23;;
16890;SDS011;8562;52.246;20.966;2023-05-10T03:55:47;6.23;;;1.87;;
16890;SDS011;8562;52.246;20.966;2023-05-10T03:58:12;7.10;;;3.23;;
16890;SDS011;8562;52.246;20.966;2023-05-10T04:00:38;5.47;;;2.53;;
16890;SDS011;8562;52.246;20.966;2023-05-10T04:03:09;3.23;;;2.00;;
16890;SDS011;8562;52.246;20.966;2023-05-10T04:05:35;2.97;;;2.20;;
16890;SDS011;8562;52.246;20.966;2023-05-10T04:08:00;2.90;;;2.13;;
16890;SDS011;8562;52.246;20.966;2023-05-10T04:10:25;5.20;;;2.20;;
16890;SDS011;8562;52.246;20.966;2023-05-10T04:12:51;3.03;;;2.27;;
16890;SDS011;8562;52.246;20.966;2023-05-10T04:15:16;3.20;;;2.50;;
16890;SDS011;8562;52.246;20.966;2023-05-10T04:17:41;4.83;;;2.23;;
16890;SDS011;8562;52.246;20.966;2023-05-10T04:20:07;3.43;;;2.07;;
16890;SDS011;8562;52.246;20.966;2023-05-10T04:22:32;3.87;;;2.67;;
16890;SDS011;8562;52.246;20.966;2023-05-10T04:24:57;3.70;;;2.37;;
16890;SDS011;8562;52.246;20.966;2023-05-10T04:27:23;4.50;;;2.00;;
16890;SDS011;8562;52.246;20.966;2023-05-10T04:29:48;3.80;;;2.63;;
16890;SDS011;8562;52.246;20.966;2023-05-10T04:32:13;5.97;;;2.63;;
16890;SDS011;8562;52.246;20.966;2023-05-10T04:34:39;2.33;;;2.13;;
16890;SDS011;8562;52.246;20.966;2023-05-10T04:37:04;4.50;;;2.33;;
16890;SDS011;8562;52.246;20.966;2023-05-10T04:39:29;2.67;;;1.73;;
16890;SDS011;8562;52.246;20.966;2023-05-10T04:41:55;2.63;;;2.43;;
16890;SDS011;8562;52.246;20.966;2023-05-10T04:44:20;3.50;;;2.27;;
16890;SDS011;8562;52.246;20.966;2023-05-10T04:46:45;5.07;;;2.63;;
16890;SDS011;8562;52.246;20.966;2023-05-10T04:49:11;6.63;;;2.50;;
16890;SDS011;8562;52.246;20.966;2023-05-10T04:51:36;5.37;;;2.43;;
16890;SDS011;8562;52.246;20.966;2023-05-10T04:54:02;4.10;;;2.20;;
16890;SDS011;8562;52.246;20.966;2023-05-10T04:56:27;4.07;;;2.40;;
16890;SDS011;8562;52.246;20.966;2023-05-10T04:58:52;6.03;;;2.77;;
16890;SDS011;8562;52.246;20.966;2023-05-10T05:01:18;3.67;;;2.90;;
16890;SDS011;8562;52.246;20.966;2023-05-10T05:03:43;3.30;;;2.33;;
16890;SDS011;8562;52.246;20.966;2023-05-10T05:06:08;3.57;;;2.57;;
16890;SDS011;8562;52.246;20.966;2023-05-10T05:08:34;3.50;;;2.60;;
16890;SDS011;8562;52.246;20.966;2023-05-10T05:10:59;5.53;;;2.57;;
16890;SDS011;8562;52.246;20.966;2023-05-10T05:13:25;3.73;;;2.90;;
16890;SDS011;8562;52.246;20.966;2023-05-10T05:15:50;3.83;;;2.30;;
16890;SDS011;8562;52.246;20.966;2023-05-10T05:18:15;2.80;;;2.20;;
16890;SDS011;8562;52.246;20.966;2023-05-10T05:20:40;4.37;;;2.30;;
16890;SDS011;8562;52.246;20.966;2023-05-10T05:23:06;4.23;;;2.10;;
16890;SDS011;8562;52.246;20.966;2023-05-10T05:25:31;3.77;;;2.20;;
16890;SDS011;8562;52.246;20.966;2023-05-10T05:27:56;4.03;;;2.70;;
16890;SDS011;8562;52.246;20.966;2023-05-10T05:30:22;5.43;;;2.63;;
16890;SDS011;8562;52.246;20.966;2023-05-10T05:32:47;5.40;;;1.80;;
16890;SDS011;8562;52.246;20.966;2023-05-10T05:35:12;3.60;;;1.90;;
16890;SDS011;8562;52.246;20.966;2023-05-10T05:37:37;2.23;;;1.93;;
16890;SDS011;8562;52.246;20.966;2023-05-10T05:40:03;2.93;;;1.93;;
16890;SDS011;8562;52.246;20.966;2023-05-10T05:42:29;3.67;;;2.50;;
16890;SDS011;8562;52.246;20.966;2023-05-10T05:44:55;4.97;;;2.17;;
16890;SDS011;8562;52.246;20.966;2023-05-10T05:47:21;3.27;;;2.47;;
16890;SDS011;8562;52.246;20.966;2023-05-10T05:49:46;2.97;;;1.90;;
16890;SDS011;8562;52.246;20.966;2023-05-10T05:52:12;4.40;;;1.90;;
16890;SDS011;8562;52.246;20.966;2023-05-10T05:54:37;5.47;;;2.20;;
16890;SDS011;8562;52.246;20.966;2023-05-10T05:57:02;3.20;;;2.37;;
16890;SDS011;8562;52.246;20.966;2023-05-10T05:59:28;2.33;;;1.97;;
16890;SDS011;8562;52.246;20.966;2023-05-10T06:01:53;3.50;;;2.23;;
16890;SDS011;8562;52.246;20.966;2023-05-10T06:04:18;8.67;;;2.60;;
16890;SDS011;8562;52.246;20.966;2023-05-10T06:06:44;3.10;;;2.23;;
16890;SDS011;8562;52.246;20.966;2023-05-10T06:09:09;7.50;;;2.33;;
16890;SDS011;8562;52.246;20.966;2023-05-10T06:11:35;3.03;;;2.10;;
16890;SDS011;8562;52.246;20.966;2023-05-10T06:14:00;3.10;;;2.00;;
16890;SDS011;8562;52.246;20.966;2023-05-10T06:16:26;3.70;;;2.93;;
16890;SDS011;8562;52.246;20.966;2023-05-10T06:18:52;4.27;;;2.50;;
16890;SDS011;8562;52.246;20.966;2023-05-10T06:21:17;6.50;;;2.60;;
16890;SDS011;8562;52.246;20.966;2023-05-10T06:23:42;2.87;;;2.07;;
16890;SDS011;8562;52.246;20.966;2023-05-10T06:26:08;5.90;;;2.90;;
16890;SDS011;8562;52.246;20.966;2023-05-10T06:28:34;4.30;;;2.77;;
16890;SDS011;8562;52.246;20.966;2023-05-10T06:30:59;3.97;;;2.53;;
16890;SDS011;8562;52.246;20.966;2023-05-10T06:33:25;3.80;;;2.53;;
16890;SDS011;8562;52.246;20.966;2023-05-10T06:35:50;5.23;;;2.27;;
16890;SDS011;8562;52.246;20.966;2023-05-10T06:38:16;2.60;;;2.13;;
16890;SDS011;8562;52.246;20.966;2023-05-10T06:40:41;3.53;;;2.40;;
16890;SDS011;8562;52.246;20.966;2023-05-10T06:43:07;3.33;;;2.10;;
16890;SDS011;8562;52.246;20.966;2023-05-10T06:45:32;2.90;;;1.93;;
16890;SDS011;8562;52.246;20.966;2023-05-10T06:47:57;7.97;;;2.73;;
16890;SDS011;8562;52.246;20.966;2023-05-10T06:50:23;3.90;;;2.13;;
16890;SDS011;8562;52.246;20.966;2023-05-10T06:52:48;6.20;;;2.67;;
16890;SDS011;8562;52.246;20.966;2023-05-10T06:55:13;6.17;;;2.60;;
16890;SDS011;8562;52.246;20.966;2023-05-10T06:57:39;5.87;;;2.47;;
16890;SDS011;8562;52.246;20.966;2023-05-10T07:00:04;2.87;;;1.73;;
16890;SDS011;8562;52.246;20.966;2023-05-10T07:02:29;3.77;;;1.90;;
16890;SDS011;8562;52.246;20.966;2023-05-10T07:04:55;3.70;;;2.20;;
16890;SDS011;8562;52.246;20.966;2023-05-10T07:07:20;3.93;;;1.93;;
16890;SDS011;8562;52.246;20.966;2023-05-10T07:09:46;2.67;;;1.70;;
16890;SDS011;8562;52.246;20.966;2023-05-10T07:12:11;2.77;;;1.80;;
16890;SDS011;8562;52.246;20.966;2023-05-10T07:14:36;1.60;;;1.40;;
16890;SDS011;8562;52.246;20.966;2023-05-10T07:17:02;4.67;;;2.10;;
16890;SDS011;8562;52.246;20.966;2023-05-10T07:19:27;3.43;;;1.60;;
16890;SDS011;8562;52.246;20.966;2023-05-10T07:21:54;4.20;;;1.80;;
16890;SDS011;8562;52.246;20.966;2023-05-10T07:24:20;2.03;;;1.50;;
16890;SDS011;8562;52.246;20.966;2023-05-10T07:26:45;3.77;;;1.73;;
16890;SDS011;8562;52.246;20.966;2023-05-10T07:29:10;4.80;;;2.00;;
16890;SDS011;8562;52.246;20.966;2023-05-10T07:31:36;1.63;;;1.23;;
16890;SDS011;8562;52.246;20.966;2023-05-10T07:34:01;3.20;;;1.40;;
16890;SDS011;8562;52.246;20.966;2023-05-10T07:36:27;2.83;;;1.87;;
16890;SDS011;8562;52.246;20.966;2023-05-10T07:38:52;2.17;;;1.30;;
16890;SDS011;8562;52.246;20.966;2023-05-10T07:41:18;2.30;;;1.70;;
16890;SDS011;8562;52.246;20.966;2023-05-10T07:43:43;1.63;;;1.20;;
16890;SDS011;8562;52.246;20.966;2023-05-10T07:46:09;2.17;;;1.33;;
16890;SDS011;8562;52.246;20.966;2023-05-10T07:48:36;1.47;;;1.20;;
16890;SDS011;8562;52.246;20.966;2023-05-10T07:51:01;4.73;;;1.87;;
16890;SDS011;8562;52.246;20.966;2023-05-10T07:53:27;1.77;;;1.40;;
16890;SDS011;8562;52.246;20.966;2023-05-10T07:55:54;3.50;;;1.57;;
16890;SDS011;8562;52.246;20.966;2023-05-10T07:58:19;2.60;;;1.60;;
16890;SDS011;8562;52.246;20.966;2023-05-10T08:00:45;1.67;;;1.20;;
16890;SDS011;8562;52.246;20.966;2023-05-10T08:03:10;1.83;;;1.50;;
16890;SDS011;8562;52.246;20.966;2023-05-10T08:05:35;2.67;;;1.40;;
16890;SDS011;8562;52.246;20.966;2023-05-10T08:08:01;1.10;;;1.00;;
16890;SDS011;8562;52.246;20.966;2023-05-10T08:10:26;1.97;;;1.43;;
16890;SDS011;8562;52.246;20.966;2023-05-10T08:12:51;4.23;;;1.50;;
16890;SDS011;8562;52.246;20.966;2023-05-10T08:15:17;1.87;;;1.53;;
16890;SDS011;8562;52.246;20.966;2023-05-10T08:17:42;4.17;;;1.67;;
16890;SDS011;8562;52.246;20.966;2023-05-10T08:20:08;1.93;;;1.17;;
16890;SDS011;8562;52.246;20.966;2023-05-10T08:22:33;1.13;;;1.00;;
16890;SDS011;8562;52.246;20.966;2023-05-10T08:24:59;4.23;;;1.43;;
16890;SDS011;8562;52.246;20.966;2023-05-10T08:27:24;2.13;;;1.30;;
16890;SDS011;8562;52.246;20.966;2023-05-10T08:29:49;2.90;;;1.20;;
16890;SDS011;8562;52.246;20.966;2023-05-10T08:32:15;2.10;;;1.47;;
16890;SDS011;8562;52.246;20.966;2023-05-10T08:34:40;2.17;;;1.93;;
16890;SDS011;8562;52.246;20.966;2023-05-10T08:37:06;2.10;;;1.53;;
16890;SDS011;8562;52.246;20.966;2023-05-10T08:39:34;1.33;;;1.23;;
16890;SDS011;8562;52.246;20.966;2023-05-10T08:41:59;2.00;;;1.50;;
16890;SDS011;8562;52.246;20.966;2023-05-10T08:44:26;2.23;;;1.33;;
16890;SDS011;8562;52.246;20.966;2023-05-10T08:46:51;1.53;;;1.30;;
16890;SDS011;8562;52.246;20.966;2023-05-10T08:49:18;2.23;;;1.50;;
16890;SDS011;8562;52.246;20.966;2023-05-10T08:51:47;3.63;;;1.43;;
16890;SDS011;8562;52.246;20.966;2023-05-10T08:54:14;3.43;;;1.30;;
16890;SDS011;8562;52.246;20.966;2023-05-10T08:56:40;2.20;;;1.30;;
16890;SDS011;8562;52.246;20.966;2023-05-10T08:59:05;1.27;;;1.10;;
16890;SDS011;8562;52.246;20.966;2023-05-10T09:01:31;3.07;;;1.40;;
16890;SDS011;8562;52.246;20.966;2023-05-10T09:03:56;2.13;;;1.30;;
16890;SDS011;8562;52.246;20.966;2023-05-10T09:06:22;1.33;;;1.23;;
16890;SDS011;8562;52.246;20.966;2023-05-10T09:08:47;6.10;;;1.63;;
16890;SDS011;8562;52.246;20.966;2023-05-10T09:11:13;1.40;;;1.30;;
16890;SDS011;8562;52.246;20.966;2023-05-10T09:13:38;3.83;;;1.13;;
16890;SDS011;8562;52.246;20.966;2023-05-10T09:16:04;1.53;;;1.07;;
16890;SDS011;8562;52.246;20.966;2023-05-10T09:18:29;4.33;;;1.40;;
16890;SDS011;8562;52.246;20.966;2023-05-10T09:20:54;6.63;;;1.63;;
16890;SDS011;8562;52.246;20.966;2023-05-10T09:23:20;2.40;;;1.40;;
16890;SDS011;8562;52.246;20.966;2023-05-10T09:25:45;2.10;;;1.47;;
16890;SDS011;8562;52.246;20.966;2023-05-10T09:28:11;2.67;;;1.47;;
16890;SDS011;8562;52.246;20.966;2023-05-10T09:30:36;3.23;;;1.80;;
16890;SDS011;8562;52.246;20.966;2023-05-10T09:33:02;1.93;;;1.40;;
16890;SDS011;8562;52.246;20.966;2023-05-10T09:35:28;2.13;;;1.33;;
16890;SDS011;8562;52.246;20.966;2023-05-10T09:37:55;5.00;;;1.90;;
16890;SDS011;8562;52.246;20.966;2023-05-10T09:40:22;3.73;;;1.40;;
16890;SDS011;8562;52.246;20.966;2023-05-10T09:42:57;8.97;;;1.40;;
16890;SDS011;8562;52.246;20.966;2023-05-10T09:45:23;1.90;;;1.37;;
16890;SDS011;8562;52.246;20.966;2023-05-10T09:47:49;6.63;;;1.83;;
16890;SDS011;8562;52.246;20.966;2023-05-10T09:50:14;5.17;;;1.50;;
16890;SDS011;8562;52.246;20.966;2023-05-10T09:55:15;1.87;;;1.37;;
16890;SDS011;8562;52.246;20.966;2023-05-10T09:57:40;2.10;;;1.20;;
16890;SDS011;8562;52.246;20.966;2023-05-10T10:00:06;3.47;;;1.30;;
16890;SDS011;8562;52.246;20.966;2023-05-10T10:02:39;2.47;;;1.37;;
16890;SDS011;8562;52.246;20.966;2023-05-10T10:05:06;4.77;;;1.50;;
16890;SDS011;8562;52.246;20.966;2023-05-10T10:07:31;1.63;;;1.30;;
16890;SDS011;8562;52.246;20.966;2023-05-10T10:09:57;3.67;;;1.50;;
16890;SDS011;8562;52.246;20.966;2023-05-10T10:12:23;1.53;;;1.43;;
16890;SDS011;8562;52.246;20.966;2023-05-10T10:14:48;2.67;;;1.10;;
16890;SDS011;8562;52.246;20.966;2023-05-10T10:17:15;2.03;;;1.40;;
16890;SDS011;8562;52.246;20.966;2023-05-10T10:19:40;1.57;;;1.33;;
16890;SDS011;8562;52.246;20.966;2023-05-10T10:22:06;5.30;;;1.57;;
16890;SDS011;8562;52.246;20.966;2023-05-10T10:24:31;1.27;;;1.10;;
16890;SDS011;8562;52.246;20.966;2023-05-10T10:26:58;1.80;;;1.53;;
16890;SDS011;8562;52.246;20.966;2023-05-10T10:34:35;2.27;;;1.40;;
16890;SDS011;8562;52.246;20.966;2023-05-10T10:37:04;2.47;;;1.87;;
16890;SDS011;8562;52.246;20.966;2023-05-10T10:39:29;1.57;;;1.27;;
16890;SDS011;8562;52.246;20.966;2023-05-10T10:41:56;2.63;;;1.43;;
16890;SDS011;8562;52.246;20.966;2023-05-10T10:49:28;1.57;;;1.40;;
16890;SDS011;8562;52.246;20.966;2023-05-10T10:54:37;1.57;;;1.23;;
16890;SDS011;8562;52.246;20.966;2023-05-10T10:57:12;1.07;;;1.07;;
16890;SDS011;8562;52.246;20.966;2023-05-10T10:59:44;2.77;;;1.27;;
16890;SDS011;8562;52.246;20.966;2023-05-10T11:02:21;2.93;;;1.60;;
16890;SDS011;8562;52.246;20.966;2023-05-10T11:04:55;2.87;;;1.50;;
16890;SDS011;8562;52.246;20.966;2023-05-10T11:07:21;1.13;;;1.03;;
16890;SDS011;8562;52.246;20.966;2023-05-10T11:09:46;9.97;;;2.90;;
16890;SDS011;8562;52.246;20.966;2023-05-10T11:12:12;2.87;;;1.20;;
16890;SDS011;8562;52.246;20.966;2023-05-10T11:14:37;1.77;;;1.50;;
16890;SDS011;8562;52.246;20.966;2023-05-10T11:17:21;0.97;;;0.97;;
16890;SDS011;8562;52.246;20.966;2023-05-10T11:20:02;2.90;;;1.40;;
16890;SDS011;8562;52.246;20.966;2023-05-10T11:22:28;1.40;;;1.27;;
16890;SDS011;8562;52.246;20.966;2023-05-10T11:24:56;1.33;;;1.17;;
16890;SDS011;8562;52.246;20.966;2023-05-10T11:27:23;1.63;;;1.00;;
16890;SDS011;8562;52.246;20.966;2023-05-10T11:29:51;1.90;;;1.30;;
16890;SDS011;8562;52.246;20.966;2023-05-10T11:32:17;1.60;;;1.43;;
16890;SDS011;8562;52.246;20.966;2023-05-10T11:34:46;8.47;;;1.87;;
16890;SDS011;8562;52.246;20.966;2023-05-10T11:37:13;4.40;;;1.70;;
16890;SDS011;8562;52.246;20.966;2023-05-10T11:39:38;2.10;;;1.17;;
16890;SDS011;8562;52.246;20.966;2023-05-10T11:42:03;2.80;;;1.67;;
16890;SDS011;8562;52.246;20.966;2023-05-10T11:44:32;4.67;;;1.80;;
16890;SDS011;8562;52.246;20.966;2023-05-10T11:47:01;3.67;;;1.40;;
16890;SDS011;8562;52.246;20.966;2023-05-10T11:49:26;1.67;;;1.40;;
16890;SDS011;8562;52.246;20.966;2023-05-10T11:51:52;2.20;;;1.50;;
16890;SDS011;8562;52.246;20.966;2023-05-10T11:54:17;4.53;;;1.47;;
16890;SDS011;8562;52.246;20.966;2023-05-10T11:56:43;5.13;;;1.67;;
16890;SDS011;8562;52.246;20.966;2023-05-10T11:59:08;1.70;;;1.40;;
16890;SDS011;8562;52.246;20.966;2023-05-10T12:01:34;2.47;;;1.47;;
16890;SDS011;8562;52.246;20.966;2023-05-10T12:03:59;14.63;;;1.50;;
16890;SDS011;8562;52.246;20.966;2023-05-10T12:06:29;1.20;;;1.10;;
16890;SDS011;8562;52.246;20.966;2023-05-10T12:08:56;1.93;;;1.67;;
16890;SDS011;8562;52.246;20.966;2023-05-10T12:11:24;1.70;;;1.60;;
16890;SDS011;8562;52.246;20.966;2023-05-10T12:13:49;3.23;;;1.70;;
16890;SDS011;8562;52.246;20.966;2023-05-10T12:16:18;2.47;;;1.70;;
16890;SDS011;8562;52.246;20.966;2023-05-10T12:18:45;3.37;;;1.53;;
16890;SDS011;8562;52.246;20.966;2023-05-10T12:21:10;2.03;;;0.97;;
16890;SDS011;8562;52.246;20.966;2023-05-10T12:23:37;2.50;;;1.97;;
16890;SDS011;8562;52.246;20.966;2023-05-10T12:26:03;3.17;;;1.20;;
16890;SDS011;8562;52.246;20.966;2023-05-10T12:28:31;2.47;;;1.30;;
16890;SDS011;8562;52.246;20.966;2023-05-10T12:30:57;1.73;;;1.07;;
16890;SDS011;8562;52.246;20.966;2023-05-10T12:33:23;2.33;;;1.60;;
16890;SDS011;8562;52.246;20.966;2023-05-10T12:35:50;2.10;;;1.43;;
16890;SDS011;8562;52.246;20.966;2023-05-10T12:38:24;6.17;;;1.37;;
16890;SDS011;8562;52.246;20.966;2023-05-10T12:40:50;3.90;;;1.37;;
16890;SDS011;8562;52.246;20.966;2023-05-10T12:43:15;4.10;;;1.60;;
16890;SDS011;8562;52.246;20.966;2023-05-10T12:45:40;1.97;;;1.20;;
16890;SDS011;8562;52.246;20.966;2023-05-10T12:48:05;2.70;;;1.50;;
16890;SDS011;8562;52.246;20.966;2023-05-10T12:50:31;1.83;;;1.07;;
16890;SDS011;8562;52.246;20.966;2023-05-10T12:52:56;1.27;;;1.10;;
16890;SDS011;8562;52.246;20.966;2023-05-10T12:55:21;3.00;;;1.50;;
16890;SDS011;8562;52.246;20.966;2023-05-10T12:57:46;1.70;;;1.13;;
16890;SDS011;8562;52.246;20.966;2023-05-10T13:00:12;2.20;;;1.40;;
16890;SDS011;8562;52.246;20.966;2023-05-10T13:02:37;2.93;;;1.50;;
16890;SDS011;8562;52.246;20.966;2023-05-10T13:05:03;2.20;;;1.20;;
16890;SDS011;8562;52.246;20.966;2023-05-10T13:07:28;3.10;;;1.33;;
16890;SDS011;8562;52.246;20.966;2023-05-10T13:09:53;1.33;;;1.23;;
16890;SDS011;8562;52.246;20.966;2023-05-10T13:12:19;2.10;;;1.40;;
16890;SDS011;8562;52.246;20.966;2023-05-10T13:14:44;2.77;;;1.20;;
16890;SDS011;8562;52.246;20.966;2023-05-10T13:17:09;2.20;;;1.17;;
16890;SDS011;8562;52.246;20.966;2023-05-10T13:19:35;1.70;;;1.20;;
16890;SDS011;8562;52.246;20.966;2023-05-10T13:22:00;2.23;;;1.47;;
16890;SDS011;8562;52.246;20.966;2023-05-10T13:24:26;1.57;;;1.13;;
16890;SDS011;8562;52.246;20.966;2023-05-10T13:26:51;2.20;;;1.10;;
16890;SDS011;8562;52.246;20.966;2023-05-10T13:29:16;3.80;;;1.20;;
16890;SDS011;8562;52.246;20.966;2023-05-10T13:31:43;3.60;;;1.70;;
16890;SDS011;8562;52.246;20.966;2023-05-10T13:34:08;2.90;;;1.80;;
16890;SDS011;8562;52.246;20.966;2023-05-10T13:36:33;3.67;;;1.37;;
16890;SDS011;8562;52.246;20.966;2023-05-10T13:38:58;2.93;;;0.97;;
16890;SDS011;8562;52.246;20.966;2023-05-10T13:41:26;2.20;;;1.30;;
16890;SDS011;8562;52.246;20.966;2023-05-10T13:43:51;4.30;;;1.60;;
16890;SDS011;8562;52.246;20.966;2023-05-10T13:46:17;4.07;;;1.20;;
16890;SDS011;8562;52.246;20.966;2023-05-10T13:48:42;2.60;;;1.37;;
16890;SDS011;8562;52.246;20.966;2023-05-10T13:51:07;1.47;;;1.30;;
16890;SDS011;8562;52.246;20.966;2023-05-10T13:53:33;1.63;;;1.40;;
16890;SDS011;8562;52.246;20.966;2023-05-10T13:55:58;1.30;;;1.17;;
16890;SDS011;8562;52.246;20.966;2023-05-10T13:58:23;1.63;;;1.27;;
16890;SDS011;8562;52.246;20.966;2023-05-10T14:00:48;3.07;;;1.40;;
16890;SDS011;8562;52.246;20.966;2023-05-10T14:03:14;2.87;;;1.50;;
16890;SDS011;8562;52.246;20.966;2023-05-10T14:05:39;1.63;;;1.53;;
16890;SDS011;8562;52.246;20.966;2023-05-10T14:08:04;1.63;;;1.37;;
16890;SDS011;8562;52.246;20.966;2023-05-10T14:10:30;1.20;;;0.97;;
16890;SDS011;8562;52.246;20.966;2023-05-10T14:12:55;1.60;;;1.27;;
16890;SDS011;8562;52.246;20.966;2023-05-10T14:15:20;3.03;;;1.50;;
16890;SDS011;8562;52.246;20.966;2023-05-10T14:17:46;1.90;;;1.67;;
16890;SDS011;8562;52.246;20.966;2023-05-10T14:20:11;2.97;;;1.30;;
16890;SDS011;8562;52.246;20.966;2023-05-10T14:22:36;1.47;;;1.00;;
16890;SDS011;8562;52.246;20.966;2023-05-10T14:25:02;1.33;;;0.87;;
16890;SDS011;8562;52.246;20.966;2023-05-10T14:27:27;1.70;;;1.50;;
16890;SDS011;8562;52.246;20.966;2023-05-10T14:29:52;1.67;;;1.20;;
16890;SDS011;8562;52.246;20.966;2023-05-10T14:32:18;3.13;;;1.60;;
16890;SDS011;8562;52.246;20.966;2023-05-10T14:34:43;2.20;;;1.50;;
16890;SDS011;8562;52.246;20.966;2023-05-10T14:37:10;2.80;;;1.23;;
16890;SDS011;8562;52.246;20.966;2023-05-10T14:39:35;2.50;;;1.30;;
16890;SDS011;8562;52.246;20.966;2023-05-10T14:42:00;2.40;;;1.00;;
16890;SDS011;8562;52.246;20.966;2023-05-10T14:44:27;1.30;;;1.20;;
16890;SDS011;8562;52.246;20.966;2023-05-10T14:46:52;1.87;;;1.30;;
16890;SDS011;8562;52.246;20.966;2023-05-10T14:49:18;1.47;;;1.13;;
16890;SDS011;8562;52.246;20.966;2023-05-10T14:51:43;2.23;;;1.60;;
16890;SDS011;8562;52.246;20.966;2023-05-10T14:54:09;1.70;;;1.20;;
16890;SDS011;8562;52.246;20.966;2023-05-10T14:56:35;1.87;;;1.20;;
16890;SDS011;8562;52.246;20.966;2023-05-10T14:59:02;1.83;;;1.20;;
16890;SDS011;8562;52.246;20.966;2023-05-10T15:01:28;3.03;;;1.37;;
16890;SDS011;8562;52.246;20.966;2023-05-10T15:03:54;1.77;;;1.40;;
16890;SDS011;8562;52.246;20.966;2023-05-10T15:06:22;1.77;;;1.20;;
16890;SDS011;8562;52.246;20.966;2023-05-10T15:08:48;9.40;;;1.73;;
16890;SDS011;8562;52.246;20.966;2023-05-10T15:11:13;3.90;;;1.23;;
16890;SDS011;8562;52.246;20.966;2023-05-10T15:13:39;3.70;;;1.23;;
16890;SDS011;8562;52.246;20.966;2023-05-10T15:16:04;1.40;;;1.30;;
16890;SDS011;8562;52.246;20.966;2023-05-10T15:18:30;2.37;;;1.23;;